Time;durP1;ratioP1;P1;durP2;ratioP2;P2;SDS_P1;SDS_P2;PMS_P1;PMS_P2;Temp;Humidity;BMP_temperature;BMP_pressure;BME280_temperature;BME280_humidity;BME280_pressure;Samples;Min_cycle;Max_cycle;Signal;HPM_P1;HPM_P2
2022/01/22 00:01:53;;;;;;;;;2.00;2.00;;;;;;;;4;61338815;72973950;-89
2022/01/22 00:06:01;;;;;;;;;21.50;21.50;;;;;;;;4;51300047;60692595;-89
2022/01/22 00:09:51;;;;;;;;;23.50;19.50;;;;;;;;4;34514246;64366779;-90
2022/01/22 00:18:12;;;;;;;;;16.00;16.00;;;;;;;;4;40692770;66692536;-88
2022/01/22 00:22:44;;;;;;;;;11.50;11.00;;;;;;;;9;18242406;33396090;-88
2022/01/22 00:25:47;;;;;;;;;;;;;;;;;;3;77809586;81549990;-88
2022/01/22 00:28:45;;;;;;;;;16.00;7.00;;;;;;;;9;16286991;21556799;-89
2022/01/22 00:31:52;;;;;;;;;;;;;;;;;;3;77905553;91721196;-89
2022/01/22 00:36:28;;;;;;;;;16.50;9.50;;;;;;;;9;15512482;62242587;-89
2022/01/22 00:40:49;;;;;;;;;2.50;2.50;;;;;;;;8;19665600;41463171;-89
2022/01/22 00:45:23;;;;;;;;;3.50;3.50;;;;;;;;4;61958546;74025657;-88
2022/01/22 00:48:12;;;;;;;;;8.00;4.00;;;;;;;;8;18509175;23816735;-87
2022/01/22 00:52:14;;;;;;;;;;;;;;;;;;6;17101720;80738690;-87
2022/01/22 00:55:59;;;;;;;;;2.00;2.00;;;;;;;;8;16112509;46311871;-87
2022/01/22 00:58:54;;;;;;;;;10.00;10.00;;;;;;;;9;12978041;43618447;-87
2022/01/22 01:02:10;;;;;;;;;;;;;;;;;;4;40064299;75864885;-88
2022/01/22 01:06:41;;;;;;;;;6.00;6.00;;;;;;;;11;12228894;50290755;-87
2022/01/22 01:10:34;;;;;;;;;11.00;7.00;;;;;;;;9;11161370;31020874;-87
2022/01/22 01:13:20;;;;;;;;;7.50;3.50;;;;;;;;6;15809585;74065912;-87
2022/01/22 01:16:21;;;;;;;;;10.00;7.50;;;;;;;;10;12617474;20639854;-87
2022/01/22 01:33:23;;;;;;;;;3.50;1.50;;;;;;;;4;54120747;59651112;-88
2022/01/22 01:36:07;;;;;;;;;7.50;7.50;;;;;;;;12;10857733;16139086;-89
2022/01/22 01:39:00;;;;;;;;;3.00;3.00;;;;;;;;11;12671451;16372044;-87
2022/01/22 01:42:51;;;;;;;;;;;;;;;;;;3;85943424;97712778;-87
2022/01/22 01:46:47;;;;;;;;;4.00;4.00;;;;;;;;9;10772460;57204160;-88
2022/01/22 01:50:33;;;;;;;;;14.00;6.50;;;;;;;;9;10779673;48597096;-88
2022/01/22 01:59:15;;;;;;;;;10.00;4.50;;;;;;;;14;8696392;14540697;-88
2022/01/22 02:01:58;;;;;;;;;;;;;;;;;;6;10136161;49441338;-88
2022/01/22 02:04:35;;;;;;;;;10.50;8.50;;;;;;;;16;5490567;21266685;-88
2022/01/22 02:07:31;;;;;;;;;10.00;8.00;;;;;;;;6;13188040;50967912;-87
2022/01/22 02:09:59;;;;;;;;;10.00;7.50;;;;;;;;355517;22;43391204;-87
2022/01/22 02:26:08;;;;;;;;;15.50;11.50;;;;;;;;1139421;22;5150126;-88
2022/01/22 02:28:34;;;;;;;;;16.00;12.00;;;;;;;;1177495;22;6279291;-88
2022/01/22 02:31:13;;;;;;;;;14.25;7.50;;;;;;;;3356515;22;3944804;-87
2022/01/22 02:34:00;;;;;;;;;12.00;8.67;;;;;;;;3824799;22;2643778;-87
2022/01/22 02:36:32;;;;;;;;;9.00;8.00;;;;;;;;4441044;22;1844034;-88
2022/01/22 02:41:25;;;;;;;;;16.00;11.00;;;;;;;;5296056;22;1028004;-87
2022/01/22 02:43:52;;;;;;;;;14.67;9.67;;;;;;;;5441064;22;965738;-87
2022/01/22 02:46:19;;;;;;;;;12.00;9.00;;;;;;;;5525203;22;850889;-88
2022/01/22 02:48:44;;;;;;;;;14.50;8.25;;;;;;;;6288514;22;106709;-88
2022/01/22 02:51:10;;;;;;;;;12.33;8.00;;;;;;;;6300885;22;28463;-88
2022/01/22 02:53:35;;;;;;;;;12.00;12.00;;;;;;;;6328839;22;28565;-87
2022/01/22 02:56:01;;;;;;;;;9.00;9.00;;;;;;;;6300740;22;29870;-87
2022/01/22 02:58:26;;;;;;;;;15.50;10.50;;;;;;;;6300424;22;29236;-87
2022/01/22 03:00:52;;;;;;;;;12.75;11.50;;;;;;;;6299792;22;28598;-88
2022/01/22 03:03:17;;;;;;;;;12.75;11.00;;;;;;;;6327671;22;28310;-88
2022/01/22 03:05:42;;;;;;;;;13.00;9.25;;;;;;;;6327568;22;29410;-87
2022/01/22 03:08:10;;;;;;;;;8.50;8.00;;;;;;;;6327495;22;28721;-87
2022/01/22 03:10:36;;;;;;;;;14.75;8.25;;;;;;;;6310463;22;28546;-88
2022/01/22 03:16:09;;;;;;;;;7.75;7.25;;;;;;;;6360079;22;28667;-87
2022/01/22 03:18:51;;;;;;;;;16.50;10.50;;;;;;;;6332318;22;28481;-87
2022/01/22 03:29:18;;;;;;;;;14.50;10.00;;;;;;;;6361938;22;28534;-87
2022/01/22 03:31:43;;;;;;;;;16.75;13.00;;;;;;;;6362369;22;28646;-88
2022/01/22 03:34:09;;;;;;;;;18.50;11.75;;;;;;;;6362208;22;28833;-87
2022/01/22 03:36:35;;;;;;;;;16.75;11.25;;;;;;;;6333583;22;29948;-88
2022/01/22 03:39:01;;;;;;;;;11.50;10.50;;;;;;;;6333949;22;28786;-87
2022/01/22 03:41:27;;;;;;;;;12.50;11.25;;;;;;;;6361699;22;28480;-87
2022/01/22 03:43:52;;;;;;;;;13.75;11.50;;;;;;;;6360702;22;28255;-87
2022/01/22 03:46:18;;;;;;;;;13.25;11.75;;;;;;;;6332419;22;30980;-88
2022/01/22 03:48:43;;;;;;;;;11.25;9.25;;;;;;;;6361918;22;28447;-88
2022/01/22 03:51:08;;;;;;;;;12.00;10.25;;;;;;;;6361882;22;28275;-88
2022/01/22 03:53:34;;;;;;;;;16.33;13.67;;;;;;;;6362350;22;28481;-88
2022/01/22 03:56:03;;;;;;;;;11.75;9.00;;;;;;;;6361437;22;28373;-87
2022/01/22 03:58:33;;;;;;;;;11.50;11.00;;;;;;;;6360342;22;28853;-87
2022/01/22 04:03:46;;;;;;;;;14.00;11.75;;;;;;;;6360500;22;28514;-88
2022/01/22 04:08:43;;;;;;;;;12.75;7.25;;;;;;;;6361546;22;28260;-87
2022/01/22 04:11:13;;;;;;;;;18.00;13.00;;;;;;;;6342343;22;28251;-87
2022/01/22 04:13:38;;;;;;;;;15.00;12.50;;;;;;;;6301352;22;28488;-87
2022/01/22 04:16:04;;;;;;;;;15.67;9.67;;;;;;;;6302314;22;30053;-87
2022/01/22 04:26:52;;;;;;;;;16.75;12.25;;;;;;;;6329936;22;28790;-86
2022/01/22 04:29:18;;;;;;;;;13.75;9.00;;;;;;;;6328031;22;28370;-87
2022/01/22 04:31:44;;;;;;;;;17.25;13.25;;;;;;;;6329004;22;28491;-87
2022/01/22 04:34:09;;;;;;;;;9.67;8.00;;;;;;;;6302041;22;28438;-87
2022/01/22 04:36:34;;;;;;;;;13.33;12.00;;;;;;;;6329636;22;28539;-87
2022/01/22 04:38:59;;;;;;;;;14.50;10.00;;;;;;;;6329545;22;28373;-87
2022/01/22 04:41:25;;;;;;;;;18.67;14.00;;;;;;;;6329821;22;28487;-87
2022/01/22 04:43:56;;;;;;;;;17.25;13.25;;;;;;;;6329950;22;28386;-88
2022/01/22 04:46:35;;;;;;;;;14.75;13.25;;;;;;;;6300908;22;29765;-87
2022/01/22 04:56:59;;;;;;;;;24.50;16.50;;;;;;;;6328999;22;28279;-88
2022/01/22 04:59:24;;;;;;;;;20.33;15.00;;;;;;;;6329708;22;28227;-87
2022/01/22 05:01:50;;;;;;;;;24.50;18.00;;;;;;;;6330217;22;28319;-87
2022/01/22 05:04:15;;;;;;;;;28.25;21.50;;;;;;;;6301334;22;28389;-88
2022/01/22 05:06:40;;;;;;;;;24.00;18.25;;;;;;;;6300266;22;30176;-87
2022/01/22 05:09:06;;;;;;;;;24.67;16.67;;;;;;;;6328928;22;28317;-87
2022/01/22 05:11:31;;;;;;;;;19.00;15.50;;;;;;;;6329751;22;28297;-87
2022/01/22 05:13:57;;;;;;;;;20.50;19.00;;;;;;;;6329432;22;28413;-87
2022/01/22 05:16:22;;;;;;;;;25.50;17.00;;;;;;;;6329171;22;28445;-87
2022/01/22 05:18:57;;;;;;;;;19.25;17.50;;;;;;;;6329472;22;28280;-87
2022/01/22 05:21:24;;;;;;;;;30.50;17.75;;;;;;;;6330400;22;28404;-87
2022/01/22 05:23:50;;;;;;;;;28.00;19.50;;;;;;;;6330235;22;28702;-87
2022/01/22 05:29:19;;;;;;;;;21.75;17.75;;;;;;;;6328363;22;28394;-88
2022/01/22 05:39:28;;;;;;;;;27.75;19.25;;;;;;;;6329603;22;28406;-87
2022/01/22 05:41:54;;;;;;;;;23.25;17.75;;;;;;;;6328161;22;28288;-87
2022/01/22 05:44:19;;;;;;;;;13.75;8.50;;;;;;;;6301136;22;28453;-87
2022/01/22 05:46:45;;;;;;;;;26.25;21.25;;;;;;;;6329102;22;28420;-87
2022/01/22 05:49:10;;;;;;;;;19.00;12.00;;;;;;;;6328531;22;28528;-87
2022/01/22 05:51:38;;;;;;;;;33.00;21.50;;;;;;;;6328540;22;28466;-87
2022/01/22 05:54:32;;;;;;;;;25.75;17.50;;;;;;;;6329416;22;28314;-88
2022/01/22 05:59:42;;;;;;;;;22.50;17.00;;;;;;;;6329200;22;28571;-87
2022/01/22 06:02:12;;;;;;;;;24.00;18.00;;;;;;;;6329108;22;28472;-87
2022/01/22 06:04:37;;;;;;;;;27.00;20.25;;;;;;;;6329334;22;28704;-86
2022/01/22 06:07:04;;;;;;;;;36.50;22.25;;;;;;;;6297520;22;28513;-86
2022/01/22 06:09:32;;;;;;;;;23.00;20.25;;;;;;;;6295380;22;28671;-86
2022/01/22 06:12:04;;;;;;;;;36.00;19.00;;;;;;;;6354669;22;28531;-87
2022/01/22 06:14:29;;;;;;;;;27.00;18.50;;;;;;;;6361722;22;28716;-86
2022/01/22 06:16:55;;;;;;;;;28.25;21.50;;;;;;;;6332182;22;28343;-88
2022/01/22 06:19:20;;;;;;;;;22.50;16.00;;;;;;;;6360814;22;28330;-87
2022/01/22 06:21:45;;;;;;;;;31.67;22.00;;;;;;;;6361455;22;28250;-87
2022/01/22 06:24:12;;;;;;;;;25.00;17.75;;;;;;;;6333463;22;28267;-86
2022/01/22 06:26:37;;;;;;;;;24.25;19.00;;;;;;;;6361096;22;28470;-87
2022/01/22 06:29:03;;;;;;;;;22.00;18.75;;;;;;;;6358853;22;28440;-86
2022/01/22 06:31:29;;;;;;;;;22.50;17.00;;;;;;;;6330993;22;28331;-86
2022/01/22 06:33:54;;;;;;;;;27.33;18.00;;;;;;;;6360781;22;28262;-87
2022/01/22 06:36:19;;;;;;;;;28.50;22.50;;;;;;;;6361452;22;29112;-86
2022/01/22 06:38:44;;;;;;;;;23.67;19.67;;;;;;;;6360290;22;28301;-87
2022/01/22 06:43:53;;;;;;;;;24.25;18.50;;;;;;;;6359768;22;28497;-87
2022/01/22 06:46:19;;;;;;;;;24.00;20.33;;;;;;;;6361369;22;29520;-87
2022/01/22 06:48:44;;;;;;;;;33.67;22.67;;;;;;;;6358973;22;28525;-87
2022/01/22 06:51:09;;;;;;;;;28.00;21.67;;;;;;;;6360568;22;28603;-87
2022/01/22 06:53:40;;;;;;;;;25.50;22.50;;;;;;;;6332050;22;28982;-87
2022/01/22 06:56:06;;;;;;;;;26.00;19.50;;;;;;;;6360512;22;29841;-87
2022/01/22 06:58:31;;;;;;;;;29.50;21.25;;;;;;;;6358940;22;29041;-86
2022/01/22 07:00:56;;;;;;;;;30.50;25.25;;;;;;;;6360734;22;28879;-87
2022/01/22 07:03:22;;;;;;;;;34.67;21.67;;;;;;;;6358845;22;28688;-87
2022/01/22 07:05:47;;;;;;;;;25.25;21.75;;;;;;;;6332072;22;28609;-86
2022/01/22 07:08:12;;;;;;;;;24.25;21.75;;;;;;;;6358915;22;28508;-87
2022/01/22 07:10:38;;;;;;;;;28.50;23.50;;;;;;;;6332053;22;28473;-87
2022/01/22 07:13:03;;;;;;;;;26.25;20.75;;;;;;;;6331270;22;28907;-87
2022/01/22 07:15:28;;;;;;;;;30.50;23.00;;;;;;;;6360569;22;28865;-87
2022/01/22 07:17:55;;;;;;;;;29.25;24.00;;;;;;;;6359632;22;28547;-87
2022/01/22 07:20:27;;;;;;;;;28.25;23.00;;;;;;;;6360571;22;28873;-86
2022/01/22 07:25:24;;;;;;;;;25.25;23.00;;;;;;;;6359367;22;28561;-87
2022/01/22 07:27:50;;;;;;;;;31.75;22.25;;;;;;;;6331739;22;28583;-87
2022/01/22 07:30:15;;;;;;;;;33.50;26.50;;;;;;;;6360706;22;28580;-87
2022/01/22 07:32:43;;;;;;;;;31.00;23.50;;;;;;;;6331184;22;29435;-85
2022/01/22 07:35:09;;;;;;;;;30.50;23.00;;;;;;;;6331520;22;28700;-85
2022/01/22 07:37:36;;;;;;;;;25.00;21.00;;;;;;;;6331820;22;28937;-85
2022/01/22 07:40:02;;;;;;;;;26.75;22.50;;;;;;;;6358794;22;28340;-85
2022/01/22 07:42:28;;;;;;;;;31.00;22.75;;;;;;;;6358562;22;28728;-85
2022/01/22 07:44:53;;;;;;;;;35.00;22.75;;;;;;;;6358280;22;29798;-86
2022/01/22 07:47:18;;;;;;;;;31.33;24.33;;;;;;;;6360270;22;28714;-86
2022/01/22 07:49:44;;;;;;;;;23.75;18.75;;;;;;;;6360373;22;28640;-87
2022/01/22 07:52:09;;;;;;;;;29.00;21.50;;;;;;;;6360260;22;28708;-85
2022/01/22 07:54:34;;;;;;;;;28.33;23.00;;;;;;;;6358708;22;28694;-86
2022/01/22 07:57:02;;;;;;;;;25.25;24.00;;;;;;;;6359694;22;28557;-85
2022/01/22 07:59:28;;;;;;;;;30.00;22.50;;;;;;;;6331797;22;28596;-82
2022/01/22 08:01:53;;;;;;;;;32.50;25.50;;;;;;;;6358752;22;28429;-84
2022/01/22 08:04:23;;;;;;;;;31.50;24.00;;;;;;;;6358095;22;28500;-85
2022/01/22 08:06:49;;;;;;;;;31.25;20.50;;;;;;;;6360586;22;28768;-84
2022/01/22 08:09:14;;;;;;;;;29.25;20.75;;;;;;;;6358652;22;28747;-84
2022/01/22 08:11:39;;;;;;;;;25.67;22.67;;;;;;;;6330261;22;28669;-85
2022/01/22 08:14:06;;;;;;;;;29.00;23.67;;;;;;;;6360773;22;28631;-84
2022/01/22 08:16:32;;;;;;;;;30.00;24.00;;;;;;;;6332406;22;28945;-84
2022/01/22 08:18:57;;;;;;;;;33.75;24.00;;;;;;;;6359818;22;28458;-84
2022/01/22 08:21:24;;;;;;;;;28.67;19.67;;;;;;;;6333076;22;28607;-85
2022/01/22 08:23:50;;;;;;;;;29.25;22.75;;;;;;;;6360625;22;28833;-86
2022/01/22 08:26:19;;;;;;;;;32.75;23.50;;;;;;;;6360416;22;28402;-84
2022/01/22 08:28:53;;;;;;;;;29.50;22.75;;;;;;;;6358304;22;28653;-84
2022/01/22 08:36:44;;;;;;;;;34.50;26.75;;;;;;;;6361250;22;28260;-84
2022/01/22 08:39:09;;;;;;;;;30.75;21.50;;;;;;;;6361873;22;28279;-84
2022/01/22 08:41:35;;;;;;;;;30.50;27.00;;;;;;;;6361665;22;28278;-85
2022/01/22 08:44:01;;;;;;;;;31.25;23.00;;;;;;;;6361245;22;29077;-85
2022/01/22 08:46:28;;;;;;;;;25.25;20.25;;;;;;;;6361916;22;28308;-85
2022/01/22 08:48:54;;;;;;;;;25.50;21.50;;;;;;;;6332891;22;28438;-85
2022/01/22 08:51:19;;;;;;;;;24.00;15.75;;;;;;;;6360324;22;28391;-85
2022/01/22 08:53:44;;;;;;;;;33.75;24.50;;;;;;;;6360012;22;29417;-84
2022/01/22 08:56:10;;;;;;;;;43.25;25.00;;;;;;;;6332924;22;28436;-84
2022/01/22 08:58:35;;;;;;;;;28.00;22.25;;;;;;;;6360476;22;28514;-82
2022/01/22 09:01:01;;;;;;;;;28.00;24.75;;;;;;;;6363983;22;27793;-84
2022/01/22 09:03:26;;;;;;;;;26.75;24.25;;;;;;;;6333625;22;28459;-81
2022/01/22 09:05:52;;;;;;;;;39.00;26.75;;;;;;;;6361754;22;28550;-84
2022/01/22 09:08:17;;;;;;;;;34.50;25.25;;;;;;;;6360894;22;28394;-84
2022/01/22 09:10:43;;;;;;;;;25.75;20.75;;;;;;;;6331801;22;28235;-84
2022/01/22 09:13:10;;;;;;;;;31.00;25.75;;;;;;;;6332593;22;30751;-83
2022/01/22 09:15:35;;;;;;;;;27.25;26.25;;;;;;;;6335144;22;29004;-83
2022/01/22 09:18:01;;;;;;;;;31.25;23.00;;;;;;;;6363033;22;28332;-83
2022/01/22 09:23:04;;;;;;;;;32.50;20.75;;;;;;;;6361691;22;28451;-83
2022/01/22 09:25:30;;;;;;;;;33.50;26.25;;;;;;;;6361424;22;28407;-81
2022/01/22 09:27:55;;;;;;;;;38.00;27.25;;;;;;;;6362936;22;28340;-84
2022/01/22 09:30:21;;;;;;;;;29.75;24.00;;;;;;;;6363705;22;28414;-84
2022/01/22 09:32:46;;;;;;;;;30.25;28.00;;;;;;;;6362465;22;29117;-82
2022/01/22 09:35:12;;;;;;;;;29.00;24.25;;;;;;;;6336270;22;28562;-83
2022/01/22 09:37:37;;;;;;;;;38.50;25.00;;;;;;;;6364032;22;28359;-82
2022/01/22 09:40:03;;;;;;;;;27.50;25.00;;;;;;;;6332274;22;29241;-83
2022/01/22 09:42:32;;;;;;;;;35.25;24.00;;;;;;;;6361355;22;28380;-82
2022/01/22 09:44:57;;;;;;;;;25.25;22.75;;;;;;;;6362387;22;28571;-83
2022/01/22 09:47:23;;;;;;;;;32.00;23.75;;;;;;;;6362968;22;28341;-82
2022/01/22 09:49:48;;;;;;;;;31.00;24.75;;;;;;;;6362500;22;28442;-83
2022/01/22 09:52:14;;;;;;;;;35.75;22.50;;;;;;;;6333363;22;29452;-83
2022/01/22 09:54:39;;;;;;;;;26.50;21.25;;;;;;;;6334152;22;28385;-82
2022/01/22 09:57:06;;;;;;;;;33.00;23.75;;;;;;;;6332660;22;27882;-82
2022/01/22 09:59:33;;;;;;;;;31.50;24.00;;;;;;;;6361387;22;28653;-82
2022/01/22 10:02:09;;;;;;;;;35.00;22.25;;;;;;;;6332547;22;29823;-83
2022/01/22 10:04:35;;;;;;;;;27.75;23.75;;;;;;;;6360786;22;28332;-83
2022/01/22 10:07:01;;;;;;;;;32.00;24.50;;;;;;;;6361726;22;28350;-83
2022/01/22 10:09:33;;;;;;;;;26.25;21.00;;;;;;;;6361280;22;28482;-83
2022/01/22 10:12:12;;;;;;;;;33.50;23.75;;;;;;;;6361332;22;28482;-83
2022/01/22 10:14:57;;;;;;;;;37.75;26.50;;;;;;;;6332772;22;28698;-83
2022/01/22 10:17:38;;;;;;;;;36.00;26.75;;;;;;;;6305221;22;29226;-80
2022/01/22 10:20:04;;;;;;;;;28.50;23.75;;;;;;;;6361389;22;28305;-83
2022/01/22 10:22:42;;;;;;;;;28.00;22.25;;;;;;;;6361589;22;28324;-84
2022/01/22 10:25:18;;;;;;;;;21.50;19.50;;;;;;;;6362085;22;28580;-83
2022/01/22 10:27:48;;;;;;;;;29.75;23.75;;;;;;;;6332646;22;28354;-83
2022/01/22 10:30:19;;;;;;;;;31.75;20.25;;;;;;;;6361514;22;28462;-83
2022/01/22 10:35:15;;;;;;;;;30.50;23.00;;;;;;;;6361203;22;28273;-83
2022/01/22 10:37:41;;;;;;;;;27.00;20.75;;;;;;;;6360138;22;28259;-83
2022/01/22 10:40:29;;;;;;;;;34.75;21.50;;;;;;;;6361876;22;28168;-84
2022/01/22 10:43:13;;;;;;;;;26.25;19.25;;;;;;;;6360804;22;28355;-83
2022/01/22 10:45:42;;;;;;;;;31.25;23.50;;;;;;;;6361652;22;28419;-83
2022/01/22 10:48:23;;;;;;;;;27.25;20.75;;;;;;;;6361658;22;28288;-83
2022/01/22 10:51:06;;;;;;;;;31.50;23.25;;;;;;;;6361316;22;28472;-83
2022/01/22 10:53:36;;;;;;;;;25.75;20.75;;;;;;;;6361587;22;28401;-83
2022/01/22 10:56:04;;;;;;;;;27.75;21.75;;;;;;;;6361182;22;28446;-83
2022/01/22 10:58:30;;;;;;;;;27.00;21.25;;;;;;;;6360918;22;28242;-83
2022/01/22 11:01:03;;;;;;;;;31.50;25.25;;;;;;;;6361371;22;28335;-83
2022/01/22 11:03:29;;;;;;;;;30.25;23.00;;;;;;;;6361058;22;28248;-81
2022/01/22 11:05:59;;;;;;;;;36.50;26.50;;;;;;;;6361322;22;28326;-82
2022/01/22 11:08:24;;;;;;;;;30.75;26.00;;;;;;;;6360791;22;28457;-82
2022/01/22 11:10:50;;;;;;;;;42.25;27.50;;;;;;;;6361664;22;28401;-82
2022/01/22 11:13:15;;;;;;;;;33.25;25.50;;;;;;;;6332464;22;30074;-82
2022/01/22 11:15:41;;;;;;;;;40.75;24.75;;;;;;;;6361369;22;28390;-82
2022/01/22 11:18:07;;;;;;;;;30.00;22.75;;;;;;;;6360615;22;28456;-82
2022/01/22 11:20:33;;;;;;;;;32.00;22.50;;;;;;;;6331604;22;28964;-82
2022/01/22 11:22:59;;;;;;;;;27.00;22.50;;;;;;;;6360720;22;29205;-82
2022/01/22 11:25:25;;;;;;;;;28.50;28.00;;;;;;;;6332263;22;28918;-82
2022/01/22 11:27:51;;;;;;;;;29.00;26.00;;;;;;;;6360721;22;28382;-82
2022/01/22 11:30:17;;;;;;;;;39.00;28.75;;;;;;;;6360686;22;28463;-83
2022/01/22 11:32:44;;;;;;;;;35.00;30.00;;;;;;;;6360835;22;28334;-82
2022/01/22 11:35:11;;;;;;;;;33.50;28.50;;;;;;;;6332141;22;28683;-83
2022/01/22 11:37:43;;;;;;;;;36.50;26.25;;;;;;;;6360052;22;28393;-82
2022/01/22 11:40:13;;;;;;;;;33.75;25.25;;;;;;;;6332040;22;28417;-82
2022/01/22 11:42:58;;;;;;;;;31.50;26.00;;;;;;;;6360696;22;28382;-81
2022/01/22 11:45:28;;;;;;;;;33.50;24.00;;;;;;;;6331640;22;28481;-83
2022/01/22 11:48:08;;;;;;;;;36.25;28.25;;;;;;;;6359757;22;28442;-79
2022/01/22 11:50:33;;;;;;;;;41.75;30.25;;;;;;;;6333427;22;28705;-83
2022/01/22 11:53:18;;;;;;;;;37.67;27.00;;;;;;;;6361065;22;29429;-83
2022/01/22 11:55:43;;;;;;;;;31.50;25.25;;;;;;;;6359676;22;28399;-83
2022/01/22 11:58:09;;;;;;;;;26.67;21.67;;;;;;;;6332907;22;28311;-84
2022/01/22 12:00:40;;;;;;;;;32.00;24.33;;;;;;;;6362333;22;28507;-83
2022/01/22 12:03:08;;;;;;;;;39.00;29.75;;;;;;;;6333357;22;28437;-83
2022/01/22 12:05:33;;;;;;;;;41.50;27.75;;;;;;;;6362397;22;28364;-83
2022/01/22 12:08:00;;;;;;;;;36.25;27.50;;;;;;;;6361889;22;28203;-83
2022/01/22 12:10:38;;;;;;;;;27.00;22.25;;;;;;;;6362243;22;28495;-83
2022/01/22 12:16:06;;;;;;;;;33.50;25.75;;;;;;;;6362526;22;28254;-83
2022/01/22 12:18:38;;;;;;;;;27.75;24.50;;;;;;;;6362290;22;28298;-83
2022/01/22 12:23:31;;;;;;;;;19.75;16.25;;;;;;;;6361943;22;29081;-83
2022/01/22 12:25:57;;;;;;;;;29.00;22.33;;;;;;;;6362392;22;28233;-83
2022/01/22 12:28:42;;;;;;;;;32.50;23.50;;;;;;;;6361834;22;28259;-83
2022/01/22 12:31:08;;;;;;;;;27.50;23.50;;;;;;;;6361814;22;28181;-83
2022/01/22 12:33:33;;;;;;;;;30.00;26.50;;;;;;;;6362000;22;28457;-83
2022/01/22 12:36:00;;;;;;;;;32.00;22.67;;;;;;;;6362519;22;28365;-83
2022/01/22 12:38:31;;;;;;;;;36.25;26.75;;;;;;;;6333481;22;28523;-83
2022/01/22 12:41:14;;;;;;;;;34.50;25.50;;;;;;;;6361871;22;28651;-83
2022/01/22 12:43:39;;;;;;;;;18.50;9.75;;;;;;;;6361959;22;28274;-83
2022/01/22 12:46:05;;;;;;;;;29.00;25.50;;;;;;;;6362473;22;28244;-83
2022/01/22 12:48:35;;;;;;;;;33.50;27.25;;;;;;;;6362154;22;28317;-83
2022/01/22 12:51:01;;;;;;;;;36.25;28.75;;;;;;;;6362092;22;28312;-83
2022/01/22 12:53:26;;;;;;;;;36.25;28.25;;;;;;;;6362071;22;28426;-84
2022/01/22 12:56:35;;;;;;;;;35.75;27.75;;;;;;;;6362357;22;28411;-83
2022/01/22 12:58:39;;;;;;;;;36.25;26.50;;;;;;;;6359992;22;28448;-83
2022/01/22 13:01:10;;;;;;;;;32.50;26.00;;;;;;;;6361531;22;28272;-83
2022/01/22 13:03:37;;;;;;;;;29.00;22.75;;;;;;;;6361873;22;28484;-83
2022/01/22 13:06:03;;;;;;;;;29.00;25.75;;;;;;;;6362487;22;28463;-83
2022/01/22 13:08:30;;;;;;;;;38.25;26.50;;;;;;;;6361826;22;28280;-83
2022/01/22 13:10:57;;;;;;;;;28.50;23.25;;;;;;;;6333411;22;28338;-83
2022/01/22 13:13:22;;;;;;;;;32.25;27.25;;;;;;;;6361422;22;28872;-83
2022/01/22 13:15:59;;;;;;;;;37.25;28.75;;;;;;;;6362347;22;28375;-83
2022/01/22 13:18:24;;;;;;;;;27.00;23.75;;;;;;;;6362144;22;28416;-83
2022/01/22 13:20:50;;;;;;;;;37.75;29.75;;;;;;;;6333555;22;29680;-83
2022/01/22 13:23:16;;;;;;;;;32.75;27.25;;;;;;;;6361477;22;28396;-81
2022/01/22 13:25:41;;;;;;;;;37.00;30.00;;;;;;;;6361512;22;28568;-82
2022/01/22 13:28:12;;;;;;;;;30.50;26.25;;;;;;;;6361287;22;28420;-82
2022/01/22 13:30:47;;;;;;;;;32.25;26.75;;;;;;;;6361867;22;28420;-82
2022/01/22 13:33:38;;;;;;;;;39.75;29.75;;;;;;;;6361401;22;28552;-81
2022/01/22 13:36:16;;;;;;;;;32.50;25.50;;;;;;;;6360283;22;28462;-81
2022/01/22 13:49:44;;;;;;;;;51.00;34.75;;;;;;;;6361901;22;28191;-82
2022/01/22 13:52:11;;;;;;;;;39.75;29.00;;;;;;;;6331273;22;29566;-82
2022/01/22 13:54:38;;;;;;;;;45.50;33.50;;;;;;;;6359381;22;28459;-81
2022/01/22 13:57:13;;;;;;;;;36.00;34.75;;;;;;;;6359384;22;28357;-82
2022/01/22 13:59:57;;;;;;;;;42.50;31.25;;;;;;;;6359422;22;28342;-82
2022/01/22 14:04:59;;;;;;;;;46.75;35.00;;;;;;;;6359434;22;28414;-82
2022/01/22 14:07:35;;;;;;;;;42.67;34.67;;;;;;;;6359362;22;28428;-82
2022/01/22 14:10:06;;;;;;;;;41.25;33.25;;;;;;;;6358641;22;28531;-82
2022/01/22 14:12:40;;;;;;;;;41.00;32.75;;;;;;;;6330888;22;28460;-82
2022/01/22 14:15:17;;;;;;;;;47.75;33.50;;;;;;;;6359086;22;29336;-82
2022/01/22 14:20:55;;;;;;;;;42.25;29.25;;;;;;;;6337276;22;28475;-82
2022/01/22 14:23:24;;;;;;;;;30.75;22.25;;;;;;;;6359407;22;28592;-81
2022/01/22 14:25:54;;;;;;;;;37.50;34.50;;;;;;;;6360907;22;28373;-83
2022/01/22 14:28:20;;;;;;;;;44.50;35.00;;;;;;;;6359013;22;28454;-83
2022/01/22 14:30:46;;;;;;;;;43.50;32.25;;;;;;;;6361260;22;28340;-83
2022/01/22 14:33:13;;;;;;;;;36.50;30.75;;;;;;;;6361226;22;28414;-83
2022/01/22 14:35:39;;;;;;;;;46.25;35.00;;;;;;;;6333244;22;28415;-83
2022/01/22 14:38:20;;;;;;;;;21.00;15.00;;;;;;;;6333326;22;28310;-83
2022/01/22 14:44:03;;;;;;;;;55.00;37.00;;;;;;;;6361367;22;28552;-82
2022/01/22 14:46:41;;;;;;;;;43.75;36.25;;;;;;;;6333023;22;29766;-82
2022/01/22 14:49:06;;;;;;;;;40.00;33.50;;;;;;;;6361505;22;28162;-83
2022/01/22 14:51:31;;;;;;;;;45.00;33.33;;;;;;;;6337801;22;28298;-82
2022/01/22 14:53:56;;;;;;;;;38.67;33.67;;;;;;;;6361649;22;28162;-82
2022/01/22 14:56:22;;;;;;;;;50.33;32.67;;;;;;;;6332980;22;30057;-82
2022/01/22 14:58:47;;;;;;;;;47.25;35.25;;;;;;;;6360760;22;28257;-81
2022/01/22 15:01:12;;;;;;;;;44.25;34.00;;;;;;;;6361640;22;28246;-84
2022/01/22 15:03:37;;;;;;;;;41.00;32.00;;;;;;;;6361508;22;28550;-83
2022/01/22 15:06:03;;;;;;;;;40.33;31.67;;;;;;;;6359379;22;28388;-85
2022/01/22 15:08:28;;;;;;;;;43.75;35.00;;;;;;;;6360924;22;28354;-85
2022/01/22 15:10:53;;;;;;;;;43.25;33.00;;;;;;;;6360831;22;28274;-85
2022/01/22 15:13:21;;;;;;;;;41.67;35.00;;;;;;;;6332790;22;28472;-82
2022/01/22 15:15:48;;;;;;;;;50.75;39.00;;;;;;;;6331961;22;29994;-85
2022/01/22 15:18:26;;;;;;;;;46.75;33.75;;;;;;;;6331750;22;28759;-85
2022/01/22 15:20:54;;;;;;;;;;;;;;;;;;3731593;22;62330954;-84
2022/01/22 15:23:19;;;;;;;;;54.75;40.00;;;;;;;;6355069;22;29527;-83
2022/01/22 15:25:44;;;;;;;;;37.00;31.75;;;;;;;;6356436;22;78725;-83
2022/01/22 15:28:10;;;;;;;;;43.67;30.67;;;;;;;;6331688;22;28779;-82
2022/01/22 15:30:36;;;;;;;;;41.50;33.50;;;;;;;;6360197;22;28565;-82
2022/01/22 15:33:24;;;;;;;;;33.75;28.25;;;;;;;;6352754;22;73132;-83
2022/01/22 15:35:49;;;;;;;;;51.25;36.50;;;;;;;;6324410;22;241387;-85
2022/01/22 15:38:14;;;;;;;;;45.00;34.25;;;;;;;;6360175;22;28612;-84
2022/01/22 15:40:41;;;;;;;;;34.67;33.33;;;;;;;;6360744;22;28531;-84
2022/01/22 15:43:07;;;;;;;;;42.50;34.75;;;;;;;;6360528;22;28604;-84
2022/01/22 15:45:35;;;;;;;;;47.50;35.75;;;;;;;;6362094;22;28463;-83
2022/01/22 15:48:01;;;;;;;;;46.75;35.00;;;;;;;;6363960;22;28584;-83
2022/01/22 15:50:26;;;;;;;;;44.00;30.75;;;;;;;;6334363;22;30052;-83
2022/01/22 15:52:51;;;;;;;;;43.00;30.00;;;;;;;;6363695;22;28591;-83
2022/01/22 15:55:17;;;;;;;;;36.00;31.50;;;;;;;;6360927;22;28496;-83
2022/01/22 15:57:42;;;;;;;;;35.25;31.25;;;;;;;;6360123;22;28690;-83
2022/01/22 16:00:08;;;;;;;;;41.00;30.75;;;;;;;;6360650;22;28604;-83
2022/01/22 16:02:35;;;;;;;;;52.00;34.50;;;;;;;;6331887;22;29264;-83
2022/01/22 16:05:02;;;;;;;;;47.25;37.50;;;;;;;;6360405;22;29414;-84
2022/01/22 16:07:27;;;;;;;;;56.50;37.75;;;;;;;;6358268;22;30816;-84
2022/01/22 16:09:53;;;;;;;;;49.75;38.25;;;;;;;;6355845;22;32726;-84
2022/01/22 16:12:18;;;;;;;;;44.75;35.00;;;;;;;;6357381;22;31951;-84
2022/01/22 16:14:44;;;;;;;;;48.25;37.00;;;;;;;;6359550;22;29380;-84
2022/01/22 16:17:09;;;;;;;;;55.50;38.50;;;;;;;;6360191;22;28893;-83
2022/01/22 16:19:38;;;;;;;;;52.67;38.33;;;;;;;;6333662;22;29978;-84
2022/01/22 16:22:06;;;;;;;;;57.50;41.00;;;;;;;;6333302;22;28630;-84
2022/01/22 16:24:34;;;;;;;;;54.25;35.00;;;;;;;;6359253;22;28530;-84
2022/01/22 16:26:59;;;;;;;;;45.50;35.00;;;;;;;;6360148;22;29313;-84
2022/01/22 16:29:25;;;;;;;;;45.25;33.75;;;;;;;;6355261;22;34171;-84
2022/01/22 16:31:53;;;;;;;;;44.50;33.25;;;;;;;;6353671;22;35929;-84
2022/01/22 16:34:18;;;;;;;;;51.75;36.50;;;;;;;;6351997;22;40280;-84
2022/01/22 16:36:44;;;;;;;;;51.00;35.50;;;;;;;;6332907;22;28593;-84
2022/01/22 16:39:09;;;;;;;;;44.25;36.00;;;;;;;;6332914;22;30426;-84
2022/01/22 16:41:37;;;;;;;;;48.25;38.25;;;;;;;;6333498;22;28604;-83
2022/01/22 16:44:30;;;;;;;;;54.25;39.50;;;;;;;;6361743;22;28550;-85
2022/01/22 16:56:14;;;;;;;;;;;;;;;;;;;;;
2022/01/22 16:58:46;;;;;;;;;65.50;45.50;;;;;;;;6359843;22;56257;-84
2022/01/22 17:04:33;;;;;;;;;;;;;;;;;;;;;
2022/01/22 17:07:10;;;;;;;;;56.25;41.50;;;;;;;;6345518;22;55642;-84
2022/01/22 17:15:30;;;;;;;;;53.75;38.00;;;;;;;;6356861;22;32904;-83
2022/01/22 17:17:56;;;;;;;;;55.50;44.75;;;;;;;;6354508;22;35449;-84
2022/01/22 17:20:41;;;;;;;;;64.25;45.25;;;;;;;;6332053;22;33280;-84